Time;durP1;ratioP1;P1;durP2;ratioP2;P2;SDS_P1;SDS_P2;PMS_P1;PMS_P2;Temp;Humidity;BMP_temperature;BMP_pressure;BME280_temperature;BME280_humidity;BME280_pressure;Samples;Min_cycle;Max_cycle;Signal;HPM_P1;HPM_P2
2023/02/14 00:01:47;;;;;;;;;87.50;67.75;;;;;7.35;100.00;103089.81;5015090;28;45268;-74
2023/02/14 00:04:13;;;;;;;;;78.25;63.00;;;;;7.35;100.00;103083.66;5015781;28;46591;-75
2023/02/14 00:06:39;;;;;;;;;93.75;64.25;;;;;7.32;100.00;103086.09;5014544;28;45491;-74
2023/02/14 00:09:10;;;;;;;;;87.50;64.25;;;;;7.31;100.00;103082.56;5016862;28;45348;-75
2023/02/14 00:11:35;;;;;;;;;89.75;64.50;;;;;7.29;100.00;103078.91;5014384;28;45373;-74
2023/02/14 00:16:44;;;;;;;;;86.75;63.50;;;;;7.25;100.00;103084.81;5011539;28;45558;-74
2023/02/14 00:19:12;;;;;;;;;75.50;58.50;;;;;7.23;100.00;103086.44;5016981;28;45546;-76
2023/02/14 00:21:37;;;;;;;;;84.50;62.25;;;;;7.19;100.00;103079.19;5013151;28;45496;-74
2023/02/14 00:24:09;;;;;;;;;81.00;61.50;;;;;7.20;100.00;103081.00;5008722;28;45500;-75
2023/02/14 00:26:37;;;;;;;;;81.00;59.00;;;;;7.18;100.00;103084.34;5015578;28;45458;-75
2023/02/14 00:29:03;;;;;;;;;84.75;59.50;;;;;7.16;100.00;103085.97;5015261;28;45318;-75
2023/02/14 00:31:28;;;;;;;;;85.25;60.25;;;;;7.12;100.00;103079.63;5015090;28;45382;-75
2023/02/14 00:33:54;;;;;;;;;74.75;54.00;;;;;7.11;100.00;103080.44;5014734;28;53095;-73
2023/02/14 00:36:20;;;;;;;;;83.50;61.25;;;;;7.07;100.00;103078.44;5015924;28;45262;-75
2023/02/14 00:38:45;;;;;;;;;81.50;60.25;;;;;7.05;100.00;103080.97;5015485;28;45329;-74
2023/02/14 00:41:18;;;;;;;;;80.75;58.50;;;;;7.05;100.00;103080.97;5014866;28;54155;-74
2023/02/14 00:43:46;;;;;;;;;81.00;59.00;;;;;7.02;100.00;103067.63;5016053;28;46803;-75
2023/02/14 00:46:12;;;;;;;;;81.25;60.50;;;;;7.01;100.00;103059.66;5013622;28;46053;-75
2023/02/14 00:48:37;;;;;;;;;87.25;63.00;;;;;6.97;100.00;103065.53;5014262;28;45499;-74
2023/02/14 00:51:03;;;;;;;;;81.00;59.75;;;;;6.96;100.00;103067.25;5014594;28;45442;-74
2023/02/14 00:53:28;;;;;;;;;82.00;59.25;;;;;6.93;100.00;103055.69;5014924;28;47045;-74
2023/02/14 00:55:53;;;;;;;;;79.25;59.75;;;;;6.91;100.00;103060.81;5015311;28;57667;-76
2023/02/14 00:58:19;;;;;;;;;84.25;60.50;;;;;6.91;100.00;103059.91;5013860;28;49984;-76
2023/02/14 01:00:44;;;;;;;;;88.50;63.25;;;;;6.87;100.00;103052.66;5013843;28;48725;-75
2023/02/14 01:03:09;;;;;;;;;88.75;65.50;;;;;6.85;100.00;103049.03;5010927;28;62321;-74
2023/02/14 01:05:35;;;;;;;;;80.25;60.25;;;;;6.83;100.00;103055.09;5015794;28;60579;-75
2023/02/14 01:08:00;;;;;;;;;84.25;62.25;;;;;6.85;100.00;103062.16;5016496;28;51617;-74
2023/02/14 01:10:25;;;;;;;;;92.00;62.00;;;;;6.84;100.00;103040.25;5015855;28;45559;-74
2023/02/14 01:12:51;;;;;;;;;81.25;60.25;;;;;6.80;100.00;103049.66;4996824;28;58745;-75
2023/02/14 01:15:16;;;;;;;;;80.75;61.25;;;;;6.77;100.00;103053.84;5014972;28;55937;-75
2023/02/14 01:17:42;;;;;;;;;86.25;65.00;;;;;6.67;100.00;103047.09;5015177;28;45349;-76
2023/02/14 01:20:08;;;;;;;;;85.25;63.00;;;;;6.68;100.00;103055.88;5014918;28;45377;-74
2023/02/14 01:22:37;;;;;;;;;83.75;63.00;;;;;6.68;100.00;103048.91;5015534;28;45813;-74
2023/02/14 01:25:03;;;;;;;;;80.50;60.50;;;;;6.66;100.00;103052.22;5014841;28;45518;-74
2023/02/14 01:27:28;;;;;;;;;82.75;61.00;;;;;6.63;100.00;103055.59;5013844;28;45281;-74
2023/02/14 01:29:54;;;;;;;;;78.00;60.25;;;;;6.62;100.00;103051.16;5014577;28;45452;-74
2023/02/14 01:32:20;;;;;;;;;81.50;59.25;;;;;6.59;100.00;103053.56;5009518;28;46017;-74
2023/02/14 01:34:46;;;;;;;;;85.75;63.00;;;;;6.53;100.00;103046.22;5009296;28;56826;-75
2023/02/14 01:37:12;;;;;;;;;84.75;62.00;;;;;6.55;100.00;103059.44;5014379;28;45394;-74
2023/02/14 01:39:37;;;;;;;;;84.50;61.75;;;;;6.51;100.00;103058.34;5013904;28;45266;-74
2023/02/14 01:42:03;;;;;;;;;83.75;62.25;;;;;6.52;100.00;103060.16;5012852;28;59113;-75
2023/02/14 01:44:31;;;;;;;;;87.75;62.25;;;;;6.52;100.00;103064.50;5010961;28;49682;-75
2023/02/14 01:46:59;;;;;;;;;84.00;62.00;;;;;6.49;100.00;103059.03;5006772;28;45521;-76
2023/02/14 01:49:31;;;;;;;;;87.25;63.50;;;;;6.48;100.00;103062.50;5012605;28;45501;-74
2023/02/14 01:52:12;;;;;;;;;84.50;61.75;;;;;6.49;100.00;103067.81;5005601;28;45896;-76
2023/02/14 01:54:41;;;;;;;;;76.50;58.00;;;;;6.48;100.00;103062.50;5010818;28;45539;-74
2023/02/14 01:57:09;;;;;;;;;86.00;63.25;;;;;6.46;100.00;103056.25;5014804;28;45571;-76
2023/02/14 01:59:39;;;;;;;;;80.50;59.25;;;;;6.46;100.00;103051.00;5014098;28;46698;-73
2023/02/14 02:02:05;;;;;;;;;78.50;59.75;;;;;6.46;100.00;103064.13;5011614;28;46588;-74
2023/02/14 02:04:37;;;;;;;;;83.00;62.00;;;;;6.45;100.00;103057.06;5015042;28;45471;-75
2023/02/14 02:07:09;;;;;;;;;81.00;61.50;;;;;6.38;100.00;103040.00;5031203;28;45483;-74
2023/02/14 02:09:41;;;;;;;;;83.75;61.25;;;;;6.41;100.00;103041.94;5015278;28;45316;-74
2023/02/14 02:12:06;;;;;;;;;85.25;62.00;;;;;6.41;100.00;103047.19;5015663;28;46440;-75
2023/02/14 02:14:32;;;;;;;;;87.50;66.25;;;;;6.40;100.00;103045.38;5017676;28;45551;-75
2023/02/14 02:17:17;;;;;;;;;92.25;64.75;;;;;6.37;100.00;103051.31;5016475;28;45251;-75
2023/02/14 02:20:03;;;;;;;;;81.25;61.25;;;;;6.36;100.00;103049.50;5022158;28;45444;-76
2023/02/14 02:22:47;;;;;;;;;82.25;59.25;;;;;6.34;100.00;103051.13;5018037;28;45842;-75
2023/02/14 02:25:18;;;;;;;;;84.25;64.50;;;;;6.33;100.00;103048.38;5018547;28;45364;-74
2023/02/14 02:28:31;;;;;;;;;80.75;61.25;;;;;6.31;100.00;103053.53;5018418;28;45476;-74
2023/02/14 02:31:08;;;;;;;;;90.50;64.50;;;;;6.30;100.00;103042.16;4991494;28;45499;-74
2023/02/14 02:33:52;;;;;;;;;81.25;61.00;;;;;6.27;100.00;103048.91;5018174;28;46094;-74
2023/02/14 02:36:30;;;;;;;;;85.75;62.25;;;;;6.22;100.00;103045.97;5016803;28;45469;-75
2023/02/14 02:39:15;;;;;;;;;79.00;57.75;;;;;6.24;100.00;103052.25;5013851;28;45418;-74
2023/02/14 02:42:07;;;;;;;;;85.75;61.00;;;;;6.23;100.00;103053.06;5012848;28;45378;-74
2023/02/14 02:44:56;;;;;;;;;82.25;61.00;;;;;6.20;100.00;103051.97;5014721;28;46082;-75
2023/02/14 02:47:34;;;;;;;;;82.50;59.25;;;;;6.19;100.00;103040.56;5016036;28;45868;-74
2023/02/14 02:53:42;;;;;;;;;83.50;61.00;;;;;6.18;100.00;103048.31;5016939;28;45605;-75
2023/02/14 02:59:16;;;;;;;;;83.00;59.00;;;;;6.15;100.00;103037.63;5026850;28;45484;-74
2023/02/14 03:01:46;;;;;;;;;82.75;60.00;;;;;6.16;100.00;103042.06;5015866;28;45297;-75
2023/02/14 03:06:58;;;;;;;;;88.50;63.50;;;;;6.11;100.00;103033.00;5012943;28;45813;-76
2023/02/14 03:09:26;;;;;;;;;80.75;60.75;;;;;6.11;100.00;103035.63;5023108;28;45660;-74
2023/02/14 03:12:09;;;;;;;;;82.25;63.00;;;;;6.09;100.00;103038.16;5017826;28;45472;-74
2023/02/14 03:14:45;;;;;;;;;82.00;59.00;;;;;6.07;100.00;103041.47;5013845;28;45537;-74
2023/02/14 03:17:17;;;;;;;;;77.00;57.75;;;;;6.04;100.00;103029.97;5016370;28;45989;-75
2023/02/14 03:20:19;;;;;;;;;77.25;55.50;;;;;6.06;100.00;103029.16;5019467;28;45295;-74
2023/02/14 03:22:52;;;;;;;;;87.00;60.25;;;;;6.02;100.00;103025.47;4996766;28;45351;-74
2023/02/14 03:25:30;;;;;;;;;87.00;60.00;;;;;6.04;100.00;103037.84;5016690;28;45598;-74
2023/02/14 03:28:07;;;;;;;;;74.25;55.75;;;;;6.01;100.00;103034.09;5014483;28;47638;-76
2023/02/14 03:30:41;;;;;;;;;76.25;56.50;;;;;6.00;100.00;103033.22;5016056;28;45535;-74
2023/02/14 03:33:15;;;;;;;;;87.75;63.00;;;;;5.97;100.00;103030.41;5017057;28;45452;-75
2023/02/14 03:36:05;;;;;;;;;72.50;53.00;;;;;5.99;100.00;103030.50;5015969;28;45500;-74
2023/02/14 03:38:35;;;;;;;;;82.75;62.50;;;;;5.98;100.00;103020.81;5016373;28;46241;-73
2023/02/14 03:41:03;;;;;;;;;82.00;60.75;;;;;5.96;100.00;103030.28;5015037;28;45399;-76
2023/02/14 03:43:35;;;;;;;;;79.75;58.75;;;;;5.96;100.00;103032.91;5016538;28;45554;-74
2023/02/14 03:46:06;;;;;;;;;70.50;53.00;;;;;5.94;100.00;103038.06;5015422;28;45311;-75
2023/02/14 03:48:32;;;;;;;;;77.75;57.00;;;;;5.94;100.00;103045.91;5015907;28;45438;-74
2023/02/14 03:50:58;;;;;;;;;81.00;59.50;;;;;5.92;100.00;103041.41;5015609;28;45306;-74
2023/02/14 03:53:27;;;;;;;;;72.00;59.00;;;;;5.92;100.00;103044.94;5015228;28;45484;-74
2023/02/14 03:56:05;;;;;;;;;76.50;55.00;;;;;5.87;100.00;103033.19;4999548;28;45497;-73
2023/02/14 03:58:35;;;;;;;;;77.00;55.25;;;;;5.87;100.00;103027.94;5016323;28;45384;-74
2023/02/14 04:01:07;;;;;;;;;70.00;53.75;;;;;5.87;100.00;103035.81;5015482;28;45502;-74
2023/02/14 04:03:34;;;;;;;;;81.75;59.25;;;;;5.87;100.00;103033.19;5015491;28;45536;-74
2023/02/14 04:05:59;;;;;;;;;80.75;59.25;;;;;5.85;100.00;103036.50;5015257;28;48963;-75
2023/02/14 04:08:28;;;;;;;;;74.25;56.25;;;;;5.84;100.00;103035.59;5017390;28;63291;-74
2023/02/14 04:10:56;;;;;;;;;84.75;59.25;;;;;5.83;100.00;103032.88;5015637;28;45481;-74
2023/02/14 04:13:21;;;;;;;;;79.00;58.50;;;;;5.79;100.00;103037.00;5031685;28;45554;-74
2023/02/14 04:15:47;;;;;;;;;76.75;56.25;;;;;5.78;100.00;103032.59;5008520;28;45366;-74
2023/02/14 04:20:56;;;;;;;;;81.50;56.25;;;;;5.77;100.00;103036.94;5015432;28;45358;-75
2023/02/14 04:23:21;;;;;;;;;77.50;56.25;;;;;5.76;100.00;103040.34;5014807;28;56437;-75
2023/02/14 04:25:47;;;;;;;;;80.50;60.75;;;;;5.74;100.00;103038.41;5015066;28;52996;-74
2023/02/14 04:28:12;;;;;;;;;79.00;57.25;;;;;5.74;100.00;103034.09;5016993;28;45963;-74
2023/02/14 04:30:38;;;;;;;;;78.50;57.50;;;;;5.73;100.00;103040.13;5014876;28;60558;-74
2023/02/14 04:33:03;;;;;;;;;68.75;51.75;;;;;5.71;100.00;103036.53;5015419;28;46448;-74
2023/02/14 04:35:29;;;;;;;;;74.25;58.75;;;;;5.70;100.00;103032.09;5014231;28;45651;-74
2023/02/14 04:37:55;;;;;;;;;80.75;59.25;;;;;5.68;100.00;103038.94;5015431;28;45711;-74
2023/02/14 04:40:20;;;;;;;;;82.00;55.50;;;;;5.65;100.00;103036.13;5014416;28;64525;-74
2023/02/14 04:42:46;;;;;;;;;74.50;58.50;;;;;5.64;100.00;103036.91;5014792;28;45357;-76
2023/02/14 04:45:12;;;;;;;;;80.25;59.75;;;;;5.65;100.00;103036.13;5015006;28;45463;-76
2023/02/14 04:47:37;;;;;;;;;77.25;59.50;;;;;5.63;100.00;103042.06;5014605;28;46652;-74
2023/02/14 04:50:03;;;;;;;;;77.25;56.75;;;;;5.58;100.00;103039.13;5014377;28;46002;-74
2023/02/14 04:52:28;;;;;;;;;86.25;61.75;;;;;5.56;100.00;103038.13;5014991;28;45419;-74
2023/02/14 04:54:54;;;;;;;;;77.75;57.75;;;;;5.57;100.00;103037.31;5014244;28;48052;-74
2023/02/14 04:57:19;;;;;;;;;84.25;60.25;;;;;5.56;100.00;103042.47;5014420;28;46139;-75
2023/02/14 04:59:45;;;;;;;;;80.00;59.00;;;;;5.55;100.00;103049.41;5013994;28;45357;-76
2023/02/14 05:02:10;;;;;;;;;42.25;27.00;;;;;5.58;100.00;103046.97;5015525;28;48383;-75
2023/02/14 05:04:35;;;;;;;;;73.25;57.00;;;;;5.57;100.00;103039.94;5013931;28;46703;-74
2023/02/14 05:07:01;;;;;;;;;84.00;57.50;;;;;5.53;100.00;103043.16;5015669;28;45374;-74
2023/02/14 05:09:26;;;;;;;;;74.75;57.75;;;;;5.55;100.00;103046.78;5018634;28;51120;-75
2023/02/14 05:11:52;;;;;;;;;75.25;58.25;;;;;5.55;100.00;103053.75;5011683;28;45487;-74
2023/02/14 05:14:17;;;;;;;;;83.50;62.00;;;;;5.54;100.00;103042.38;5014697;28;45480;-75
2023/02/14 05:16:42;;;;;;;;;83.75;59.75;;;;;5.52;100.00;103042.25;5008312;28;62670;-74
2023/02/14 05:19:08;;;;;;;;;76.50;57.00;;;;;5.51;100.00;103044.78;5014977;28;58579;-74
2023/02/14 05:21:33;;;;;;;;;82.25;59.00;;;;;5.49;100.00;103039.44;5014216;28;52740;-74
2023/02/14 05:23:59;;;;;;;;;83.75;60.50;;;;;5.52;100.00;103041.34;5010969;28;53842;-74
2023/02/14 05:26:25;;;;;;;;;76.75;57.25;;;;;5.49;100.00;103038.53;4991650;28;47942;-75
2023/02/14 05:28:50;;;;;;;;;82.25;60.75;;;;;5.49;100.00;103041.16;5013336;28;45327;-75
2023/02/14 05:31:15;;;;;;;;;77.00;57.00;;;;;5.49;100.00;103039.44;5014562;28;58998;-73
2023/02/14 05:33:41;;;;;;;;;80.25;60.50;;;;;5.49;100.00;103034.19;5013916;28;49920;-75
2023/02/14 05:36:06;;;;;;;;;78.00;57.75;;;;;5.47;100.00;103029.63;5015488;28;47803;-75
2023/02/14 05:38:33;;;;;;;;;82.75;59.75;;;;;5.47;100.00;103035.78;5013124;28;45457;-75
2023/02/14 05:40:59;;;;;;;;;79.75;60.25;;;;;5.45;100.00;103018.16;5011910;28;45326;-75
2023/02/14 05:43:25;;;;;;;;;82.50;59.75;;;;;5.47;100.00;103027.91;5013838;28;45508;-75
2023/02/14 05:45:50;;;;;;;;;68.00;53.50;;;;;5.44;100.00;103016.34;5011366;28;46863;-75
2023/02/14 05:48:16;;;;;;;;;84.50;60.75;;;;;5.44;100.00;103029.44;5012915;28;45713;-75
2023/02/14 05:50:41;;;;;;;;;85.25;63.25;;;;;5.41;100.00;103018.75;5012746;28;45862;-75
2023/02/14 05:53:08;;;;;;;;;85.00;62.75;;;;;5.41;100.00;103026.63;5009555;28;48757;-76
2023/02/14 05:55:33;;;;;;;;;79.00;60.25;;;;;5.42;100.00;103028.41;5012665;28;45515;-74
2023/02/14 05:57:58;;;;;;;;;84.75;62.00;;;;;5.42;100.00;103029.31;5010812;28;46500;-74
2023/02/14 06:00:24;;;;;;;;;81.00;59.75;;;;;5.42;100.00;103025.81;5014568;28;45626;-74
2023/02/14 06:02:49;;;;;;;;;80.75;60.25;;;;;5.39;100.00;103031.75;5013692;28;45399;-74
2023/02/14 06:05:17;;;;;;;;;82.00;60.75;;;;;5.39;100.00;103030.84;5013266;28;46622;-76
2023/02/14 06:07:47;;;;;;;;;83.25;62.00;;;;;5.39;100.00;103028.22;5016032;28;45503;-76
2023/02/14 06:10:13;;;;;;;;;82.00;61.50;;;;;5.37;100.00;103035.97;5016399;28;45306;-76
2023/02/14 06:12:38;;;;;;;;;80.75;58.25;;;;;5.35;100.00;103034.06;5012949;28;45339;-74
2023/02/14 06:15:04;;;;;;;;;79.75;58.00;;;;;5.35;100.00;103037.59;5013507;28;61672;-74
2023/02/14 06:17:29;;;;;;;;;79.00;61.75;;;;;5.34;100.00;103041.03;5014662;28;45444;-76
2023/02/14 06:19:54;;;;;;;;;85.25;62.25;;;;;5.25;100.00;103025.56;5017151;28;45342;-74
2023/02/14 06:22:20;;;;;;;;;82.75;60.00;;;;;5.23;100.00;103031.53;5014637;28;52623;-76
2023/02/14 06:24:45;;;;;;;;;81.50;58.75;;;;;5.17;100.00;103024.16;5014265;28;45464;-74
2023/02/14 06:27:11;;;;;;;;;77.50;59.25;;;;;5.13;100.00;103034.31;5014233;28;59140;-74
2023/02/14 06:29:36;;;;;;;;;79.75;58.25;;;;;5.10;100.00;103028.84;5013757;28;45477;-75
2023/02/14 06:32:05;;;;;;;;;78.75;57.00;;;;;5.02;100.00;103015.25;5012919;28;45476;-74
2023/02/14 06:34:32;;;;;;;;;80.50;57.75;;;;;5.00;100.00;103020.38;5011365;28;46611;-75
2023/02/14 06:36:57;;;;;;;;;80.75;61.25;;;;;4.97;100.00;103016.66;5008601;28;45556;-75
2023/02/14 06:39:22;;;;;;;;;76.25;60.75;;;;;4.94;100.00;103021.66;5012168;28;53373;-75
2023/02/14 06:41:48;;;;;;;;;78.75;58.50;;;;;4.90;100.00;103011.78;5009917;28;49845;-75
2023/02/14 06:44:13;;;;;;;;;76.25;58.75;;;;;4.89;100.00;103023.06;5012479;28;62769;-74
2023/02/14 06:46:38;;;;;;;;;76.00;58.75;;;;;4.87;100.00;103016.81;5009307;28;45350;-75
2023/02/14 06:49:04;;;;;;;;;87.50;59.50;;;;;4.86;100.00;103023.78;5012127;28;45457;-75
2023/02/14 06:51:29;;;;;;;;;77.25;56.00;;;;;4.85;100.00;103031.53;5009800;28;52786;-74
2023/02/14 06:53:54;;;;;;;;;77.25;56.25;;;;;4.83;100.00;103033.09;5021369;28;55610;-75
2023/02/14 06:56:20;;;;;;;;;80.25;58.50;;;;;4.84;100.00;103029.69;5011768;28;45548;-75
2023/02/14 06:58:45;;;;;;;;;82.75;59.75;;;;;4.83;100.00;103031.41;5010762;28;45440;-74
2023/02/14 07:01:11;;;;;;;;;63.50;52.25;;;;;4.84;100.00;103034.91;5011011;28;45424;-75
2023/02/14 07:03:36;;;;;;;;;84.25;61.50;;;;;4.80;100.00;103028.59;5015479;28;46522;-74
2023/02/14 07:06:01;;;;;;;;;83.25;60.00;;;;;4.85;100.00;103036.75;5017286;28;45313;-75
2023/02/14 07:08:27;;;;;;;;;84.50;59.75;;;;;4.89;100.00;103044.00;5023715;28;45380;-75
2023/02/14 07:10:56;;;;;;;;;78.25;59.75;;;;;4.89;100.00;103050.13;5005471;28;46071;-76
2023/02/14 07:13:22;;;;;;;;;83.75;60.25;;;;;4.89;100.00;103050.13;5005828;28;46847;-76
2023/02/14 07:15:47;;;;;;;;;87.00;60.00;;;;;4.88;100.00;103055.28;5005902;28;45449;-76
2023/02/14 07:18:13;;;;;;;;;80.25;58.25;;;;;4.89;100.00;103059.69;4991774;28;45338;-74
2023/02/14 07:20:38;;;;;;;;;87.75;62.25;;;;;4.88;100.00;103053.56;5019051;28;45512;-74
2023/02/14 07:23:03;;;;;;;;;83.75;60.00;;;;;4.89;100.00;103055.38;5021734;28;55212;-74
2023/02/14 07:25:29;;;;;;;;;89.00;62.25;;;;;4.88;100.00;103053.56;5019088;28;52922;-74
2023/02/14 07:27:54;;;;;;;;;86.50;63.50;;;;;4.91;100.00;103050.28;5023918;28;45470;-74
2023/02/14 07:30:19;;;;;;;;;76.25;58.50;;;;;4.97;100.00;103056.81;5027016;28;45428;-74
2023/02/14 07:32:45;;;;;;;;;83.25;55.25;;;;;5.03;100.00;103061.59;5021099;28;46564;-74
2023/02/14 07:35:11;;;;;;;;;78.00;57.00;;;;;5.06;100.00;103056.56;5019014;28;52946;-74
2023/02/14 07:37:36;;;;;;;;;80.25;60.75;;;;;5.05;100.00;103054.72;5017063;28;45606;-75
2023/02/14 07:40:02;;;;;;;;;79.50;60.25;;;;;5.11;100.00;103056.84;5005395;28;45461;-75
2023/02/14 07:42:28;;;;;;;;;82.50;62.50;;;;;5.08;100.00;103041.84;5005141;28;48931;-75
2023/02/14 07:44:53;;;;;;;;;79.25;58.25;;;;;5.12;100.00;103041.28;5017975;28;56297;-76
2023/02/14 07:47:18;;;;;;;;;78.00;58.50;;;;;5.13;100.00;103048.31;5029600;28;46059;-73
2023/02/14 07:49:44;;;;;;;;;79.00;60.50;;;;;5.15;100.00;103037.94;5020363;28;52910;-73
2023/02/14 07:52:09;;;;;;;;;76.50;57.25;;;;;5.16;100.00;103039.75;5037603;28;59972;-73
2023/02/14 07:54:35;;;;;;;;;80.25;59.25;;;;;5.19;100.00;103043.50;5019581;28;45627;-74
2023/02/14 07:57:00;;;;;;;;;83.75;63.50;;;;;5.23;100.00;103047.25;5029120;28;50325;-73
2023/02/14 07:59:25;;;;;;;;;83.75;63.25;;;;;5.21;100.00;103044.50;5016854;28;45500;-74
2023/02/14 08:01:51;;;;;;;;;84.25;63.25;;;;;5.26;100.00;103042.19;5147959;22;46636;-75
2023/02/14 08:04:16;;;;;;;;;80.50;60.25;;;;;5.29;100.00;103041.50;5002035;28;45497;-74
2023/02/14 08:06:42;;;;;;;;;83.25;60.25;;;;;5.30;100.00;103041.59;5002329;28;45601;-74
2023/02/14 08:09:09;;;;;;;;;84.50;62.50;;;;;5.27;100.00;103036.16;5005603;28;45381;-75
2023/02/14 08:14:18;;;;;;;;;82.75;59.75;;;;;5.34;100.00;103034.88;5000102;28;46034;-74
2023/02/14 08:16:44;;;;;;;;;75.00;59.75;;;;;5.39;100.00;103036.09;4988961;28;45503;-74
2023/02/14 08:19:09;;;;;;;;;83.50;59.75;;;;;5.42;100.00;103041.53;4999154;28;51707;-76
2023/02/14 08:21:35;;;;;;;;;83.75;62.00;;;;;5.45;100.00;103034.78;5006035;28;45738;-75
2023/02/14 08:24:00;;;;;;;;;83.00;60.00;;;;;5.49;100.00;103031.56;5003417;28;45480;-74
2023/02/14 08:26:26;;;;;;;;;81.75;59.75;;;;;5.54;100.00;103045.00;5006769;28;45519;-75
2023/02/14 08:28:51;;;;;;;;;78.75;60.50;;;;;5.57;100.00;103036.41;5000243;28;52419;-75
2023/02/14 08:31:26;;;;;;;;;89.00;62.00;;;;;5.60;100.00;103045.41;4993740;28;47903;-75
2023/02/14 08:33:52;;;;;;;;;82.50;60.50;;;;;5.63;100.00;103050.81;5004250;28;45504;-76
2023/02/14 08:36:17;;;;;;;;;72.50;58.50;;;;;5.68;100.00;103046.78;4976995;28;45486;-75
2023/02/14 08:38:46;;;;;;;;;84.00;64.25;;;;;5.72;100.00;103054.06;4998847;28;45469;-74
2023/02/14 08:41:11;;;;;;;;;83.75;61.00;;;;;5.78;100.00;103053.56;4997502;28;45930;-75
2023/02/14 08:43:37;;;;;;;;;82.00;61.00;;;;;5.83;100.00;103057.38;4995034;28;45529;-74
2023/02/14 08:46:02;;;;;;;;;88.00;65.75;;;;;5.88;100.00;103053.34;4998977;28;45461;-74
2023/02/14 08:48:28;;;;;;;;;88.25;65.25;;;;;5.91;100.00;103052.63;4997193;28;45341;-75
2023/02/14 08:50:53;;;;;;;;;89.25;64.00;;;;;5.98;100.00;103061.06;5000856;28;50884;-75
2023/02/14 08:53:20;;;;;;;;;87.75;65.00;;;;;6.04;100.00;103055.31;4994718;28;58255;-74
2023/02/14 08:55:46;;;;;;;;;91.50;68.00;;;;;6.09;100.00;103056.50;4995918;28;45292;-76
2023/02/14 08:58:12;;;;;;;;;92.75;64.25;;;;;6.13;100.00;103050.66;4998005;28;45289;-76
2023/02/14 09:00:37;;;;;;;;;87.25;64.25;;;;;6.18;100.00;103041.38;4996181;28;45741;-75
2023/02/14 09:03:02;;;;;;;;;94.00;69.00;;;;;6.19;100.00;103030.06;5019551;28;45544;-74
2023/02/14 09:05:28;;;;;;;;;91.25;65.50;;;;;6.27;100.00;103031.44;4999745;28;45470;-74
2023/02/14 09:07:56;;;;;;;;;93.50;66.25;;;;;6.32;100.00;103028.22;5022156;28;45444;-74
2023/02/14 09:10:22;;;;;;;;;92.00;65.50;;;;;6.35;100.00;103018.84;4998923;28;45562;-74
2023/02/14 09:12:48;;;;;;;;;81.75;59.75;;;;;6.41;100.00;103028.81;4996651;28;45590;-76
2023/02/14 09:15:13;;;;;;;;;85.00;65.50;;;;;6.49;100.00;103032.81;4995903;28;45520;-74
2023/02/14 09:17:38;;;;;;;;;82.50;57.75;;;;;6.51;100.00;103026.84;5018957;28;46015;-74
2023/02/14 09:20:05;;;;;;;;;88.25;62.00;;;;;6.58;100.00;103030.75;5003274;28;46597;-74
2023/02/14 09:22:32;;;;;;;;;80.00;58.75;;;;;6.61;100.00;103017.84;4999502;28;45481;-74
2023/02/14 09:24:57;;;;;;;;;82.75;59.50;;;;;6.66;100.00;103024.28;5001966;28;45292;-75
2023/02/14 09:27:23;;;;;;;;;75.75;57.00;;;;;6.71;100.00;103019.28;5000429;28;45573;-74
2023/02/14 09:29:48;;;;;;;;;81.75;59.00;;;;;6.74;100.00;103017.78;5014505;28;45732;-74
2023/02/14 09:32:14;;;;;;;;;85.50;56.75;;;;;6.81;100.00;103025.19;5000142;28;59560;-74
2023/02/14 09:37:23;;;;;;;;;64.25;49.75;;;;;6.92;100.00;103024.97;5001955;28;45538;-75
2023/02/14 09:39:49;;;;;;;;;82.25;61.00;;;;;6.99;100.00;103021.91;4996457;28;56962;-74
2023/02/14 09:42:20;;;;;;;;;79.50;59.50;;;;;7.06;100.00;103016.22;4995904;28;45577;-74
2023/02/14 09:45:01;;;;;;;;;81.75;60.00;;;;;7.13;100.00;103022.72;5006297;28;45508;-76
2023/02/14 09:47:33;;;;;;;;;89.50;64.50;;;;;7.19;100.00;103017.84;4994241;28;45461;-75
2023/02/14 09:49:58;;;;;;;;;91.50;66.25;;;;;7.23;100.00;103015.47;5025469;28;46168;-75
2023/02/14 09:52:26;;;;;;;;;85.00;62.00;;;;;7.29;100.00;103005.34;5003347;28;50917;-75
2023/02/14 09:54:56;;;;;;;;;88.75;64.25;;;;;7.34;100.00;103001.25;4982260;28;45510;-76
2023/02/14 09:57:44;;;;;;;;;92.50;66.25;;;;;7.46;100.00;103008.97;4997336;28;45565;-74
2023/02/14 10:00:25;;;;;;;;;89.75;66.50;;;;;7.54;100.00;103012.03;5014110;28;46634;-75
2023/02/14 10:02:59;;;;;;;;;89.50;64.25;;;;;7.66;100.00;103006.59;4995949;28;45312;-74
2023/02/14 10:05:31;;;;;;;;;93.50;64.00;;;;;7.76;100.00;103011.56;5005409;28;47101;-75
2023/02/14 10:08:05;;;;;;;;;85.50;64.50;;;;;7.82;100.00;103014.53;5006127;28;45486;-75
2023/02/14 10:10:37;;;;;;;;;92.00;65.00;;;;;7.88;100.00;103006.97;5004533;28;46549;-75
2023/02/14 10:13:11;;;;;;;;;86.75;64.75;;;;;7.98;100.00;103009.31;5002244;28;45467;-73
2023/02/14 10:15:42;;;;;;;;;91.00;65.00;;;;;8.06;100.00;103010.69;5017418;28;45382;-75
2023/02/14 10:18:25;;;;;;;;;90.25;65.25;;;;;8.14;100.00;103004.09;4993061;28;45493;-75
2023/02/14 10:20:52;;;;;;;;;90.75;65.25;;;;;8.19;100.00;102998.19;5012106;28;46843;-75
2023/02/14 10:23:40;;;;;;;;;83.00;62.25;;;;;8.30;100.00;103000.59;5017879;28;45713;-75
2023/02/14 10:26:16;;;;;;;;;88.75;64.00;;;;;8.38;100.00;102998.44;4998458;28;45758;-74
2023/02/14 10:28:48;;;;;;;;;88.75;64.25;;;;;8.45;100.00;102994.41;4997578;28;45548;-75
2023/02/14 10:31:50;;;;;;;;;88.75;63.00;;;;;8.54;100.00;102997.53;4996500;28;46468;-74
2023/02/14 10:34:40;;;;;;;;;88.50;60.75;;;;;8.64;100.00;102984.03;4976800;28;45632;-74
2023/02/14 10:37:30;;;;;;;;;94.25;66.25;;;;;8.75;100.00;102985.50;5006974;28;45498;-75
2023/02/14 10:40:04;;;;;;;;;87.75;61.75;;;;;8.83;100.00;102988.53;5019411;28;45528;-74
2023/02/14 10:42:45;;;;;;;;;81.00;59.75;;;;;8.90;100.00;102988.06;5017393;28;46160;-75
2023/02/14 10:45:22;;;;;;;;;85.50;62.25;;;;;8.98;100.00;102983.16;5024027;28;45433;-74
2023/02/14 10:47:53;;;;;;;;;84.50;63.50;;;;;9.05;100.00;102977.38;5022546;28;45622;-74
2023/02/14 10:50:50;;;;;;;;;79.25;60.50;;;;;9.14;100.00;102980.50;5002676;28;45560;-75
2023/02/14 10:53:59;;;;;;;;;80.50;60.00;;;;;9.22;100.00;102978.28;5018655;28;46792;-74
2023/02/14 10:56:38;;;;;;;;;82.50;62.00;;;;;9.33;100.00;102977.09;4998276;28;45692;-74
2023/02/14 10:59:23;;;;;;;;;80.50;59.50;;;;;9.42;100.00;102972.25;5022085;28;45365;-74
2023/02/14 11:01:51;;;;;;;;;79.50;60.25;;;;;9.46;100.00;102961.03;5017993;28;45488;-74
2023/02/14 11:04:18;;;;;;;;;80.00;58.00;;;;;9.54;100.00;102967.59;4999885;28;46049;-76
2023/02/14 11:06:47;;;;;;;;;82.75;59.50;;;;;9.61;100.00;102955.63;5022317;28;45399;-78
2023/02/14 11:09:12;;;;;;;;;79.50;60.75;;;;;9.65;100.00;102947.03;4999779;28;45497;-75
2023/02/14 11:11:40;;;;;;;;;83.00;62.00;;;;;9.75;100.00;102956.28;5019813;28;45478;-74
2023/02/14 11:14:21;;;;;;;;;87.75;64.75;;;;;9.80;100.00;102945.13;5017669;28;45772;-76
2023/02/14 11:16:50;;;;;;;;;82.00;61.25;;;;;9.86;100.00;102940.16;5014469;28;46620;-75
2023/02/14 11:19:27;;;;;;;;;83.25;60.75;;;;;9.91;100.00;102936.00;5016260;28;45588;-74
2023/02/14 11:21:55;;;;;;;;;78.25;57.50;;;;;9.97;100.00;102935.38;5014640;28;45343;-73
2023/02/14 11:24:31;;;;;;;;;78.00;55.25;;;;;10.02;100.00;102925.03;5022757;28;46677;-73
2023/02/14 11:27:13;;;;;;;;;79.00;56.25;;;;;10.08;100.00;102920.03;5022361;28;45374;-75
2023/02/14 11:29:46;;;;;;;;;74.25;57.50;;;;;10.16;100.00;102923.94;5008130;28;45529;-75
2023/02/14 11:32:27;;;;;;;;;73.75;56.50;;;;;10.25;100.00;102919.13;5005270;28;45581;-77
2023/02/14 11:35:02;;;;;;;;;80.75;58.75;;;;;10.33;100.00;102912.44;4987527;28;46629;-77
2023/02/14 11:37:42;;;;;;;;;75.50;55.25;;;;;10.42;100.00;102914.59;4993547;28;45474;-74
2023/02/14 11:40:30;;;;;;;;;81.75;56.75;;;;;10.52;100.00;102910.63;4992458;28;45482;-75